createdAt,value
2019-03-23T00:03:00.785Z,48.70
2019-03-23T00:07:06.687Z,49.10
2019-03-23T00:11:12.470Z,50.50
2019-03-23T00:15:18.582Z,49.40
2019-03-23T00:19:24.284Z,48.90
2019-03-23T00:23:30.010Z,52.00
2019-03-23T00:27:35.712Z,52.20
2019-03-23T00:31:41.503Z,49.80
2019-03-23T00:35:47.352Z,49.60
2019-03-23T00:39:53.052Z,52.00
2019-03-23T00:43:58.761Z,48.60
2019-03-23T00:48:04.690Z,45.90
2019-03-23T00:52:10.460Z,45.10
2019-03-23T00:56:16.635Z,46.10
2019-03-23T01:00:22.455Z,48.30
2019-03-23T01:04:28.151Z,53.00
2019-03-23T01:08:33.866Z,52.00
2019-03-23T01:12:40.038Z,48.10
2019-03-23T01:16:45.743Z,54.30
2019-03-23T01:20:51.527Z,53.10
2019-03-23T01:24:57.228Z,50.20
2019-03-23T01:29:02.938Z,50.30
2019-03-23T01:33:08.830Z,51.60
2019-03-23T01:37:14.589Z,50.90
2019-03-23T01:41:20.423Z,50.70
2019-03-23T01:45:27.775Z,51.00
2019-03-23T01:49:34.424Z,58.20
2019-03-23T01:53:40.133Z,54.00
2019-03-23T01:57:45.833Z,51.50
2019-03-23T02:01:51.546Z,53.90
2019-03-23T02:05:58.364Z,51.40
2019-03-23T02:10:06.144Z,52.10
2019-03-23T02:14:12.924Z,54.50
2019-03-23T02:18:18.621Z,54.80
2019-03-23T02:22:24.382Z,56.30
2019-03-23T02:26:30.091Z,56.40
2019-03-23T02:30:35.786Z,53.90
2019-03-23T02:34:41.562Z,55.80
2019-03-23T02:38:47.268Z,58.50
2019-03-23T02:42:52.969Z,56.60
2019-03-23T02:46:58.684Z,56.30
2019-03-23T02:51:04.388Z,56.20
2019-03-23T02:55:11.403Z,54.00
2019-03-23T02:59:17.105Z,57.60
2019-03-23T03:03:22.810Z,56.50
2019-03-23T03:07:40.980Z,57.50
2019-03-23T03:11:35.915Z,58.60
2019-03-23T03:15:41.682Z,55.70
2019-03-23T03:19:47.373Z,58.30
2019-03-23T03:23:53.162Z,59.30
2019-03-23T03:27:58.844Z,62.10
2019-03-23T03:32:04.757Z,61.00
2019-03-23T03:36:10.603Z,56.40
2019-03-23T03:40:16.683Z,56.00
2019-03-23T03:44:22.373Z,59.00
2019-03-23T03:48:28.095Z,60.00
2019-03-23T03:52:33.798Z,59.90
2019-03-23T03:56:39.501Z,58.70
2019-03-23T04:00:45.201Z,57.60
2019-03-23T04:04:50.914Z,60.80
2019-03-23T04:08:56.611Z,60.00
2019-03-23T04:13:02.314Z,56.00
2019-03-23T04:17:08.217Z,55.80
2019-03-23T04:21:13.938Z,59.50
2019-03-23T04:25:19.632Z,59.50
2019-03-23T04:29:25.315Z,59.30
2019-03-23T04:33:31.013Z,60.70
2019-03-23T04:37:36.710Z,62.10
2019-03-23T04:41:42.476Z,59.80
2019-03-23T04:45:48.170Z,62.60
2019-03-23T04:49:53.847Z,58.90
2019-03-23T04:53:59.556Z,58.80
2019-03-23T04:58:05.408Z,61.80
2019-03-23T05:02:11.128Z,64.30
2019-03-23T05:06:16.834Z,59.30
2019-03-23T05:10:22.510Z,60.20
2019-03-23T05:14:28.216Z,59.10
2019-03-23T05:18:33.922Z,61.10
2019-03-23T05:22:39.718Z,60.40
2019-03-23T05:26:45.423Z,60.30
2019-03-23T05:30:51.160Z,59.30
2019-03-23T05:34:56.871Z,60.20
2019-03-23T05:39:02.719Z,59.30
2019-03-23T05:43:08.451Z,63.80
2019-03-23T05:47:14.100Z,62.20
2019-03-23T05:51:19.859Z,60.90
2019-03-23T05:55:26.254Z,64.00
2019-03-23T05:59:33.684Z,63.30
2019-03-23T06:03:39.391Z,62.80
2019-03-23T06:07:45.081Z,62.70
2019-03-23T06:11:50.963Z,63.00
2019-03-23T06:15:56.691Z,59.30
2019-03-23T06:20:04.640Z,55.60
2019-03-23T06:24:09.788Z,58.30
2019-03-23T06:28:15.481Z,60.10
2019-03-23T06:32:21.190Z,61.70
2019-03-23T06:36:26.910Z,59.40
2019-03-23T06:40:32.637Z,56.50
2019-03-23T06:44:38.351Z,57.40
2019-03-23T06:48:44.042Z,58.20
2019-03-23T06:52:49.750Z,55.80
2019-03-23T06:56:55.462Z,54.80
2019-03-23T07:01:01.237Z,52.40
2019-03-23T07:05:09.826Z,54.20
2019-03-23T07:09:16.553Z,50.70
2019-03-23T07:13:22.409Z,47.60
2019-03-23T07:17:28.121Z,45.80
2019-03-23T07:21:33.830Z,44.10
2019-03-23T07:25:39.521Z,43.10
2019-03-23T07:29:45.218Z,44.30
2019-03-23T07:34:02.253Z,44.10
2019-03-23T07:38:07.997Z,42.80
2019-03-23T07:42:13.705Z,42.20
2019-03-23T07:46:19.446Z,41.10
2019-03-23T07:50:26.225Z,41.70
2019-03-23T07:54:31.946Z,40.90
2019-03-23T07:58:37.724Z,38.90
2019-03-23T08:02:43.557Z,38.40
2019-03-23T08:06:49.273Z,37.90
2019-03-23T08:10:54.996Z,36.90
2019-03-23T08:15:00.777Z,38.10
2019-03-23T08:19:06.506Z,36.70
2019-03-23T08:23:12.194Z,34.80
2019-03-23T08:27:17.963Z,35.60
2019-03-23T08:31:23.684Z,34.00
2019-03-23T08:35:29.399Z,33.50
2019-03-23T08:39:35.110Z,33.40
2019-03-23T08:43:40.806Z,32.00
2019-03-23T08:47:46.478Z,32.00
2019-03-23T08:51:52.268Z,31.70
2019-03-23T08:55:58.014Z,30.90
2019-03-23T09:00:07.541Z,29.00
2019-03-23T09:04:13.469Z,29.30
2019-03-23T09:08:19.170Z,28.40
2019-03-23T09:12:24.879Z,27.90
2019-03-23T09:16:30.583Z,27.70
2019-03-23T09:20:36.305Z,26.40
2019-03-23T09:24:42.014Z,26.50
2019-03-23T09:28:47.786Z,26.40
2019-03-23T09:32:53.506Z,25.60
2019-03-23T09:36:59.212Z,25.20
2019-03-23T09:41:05.071Z,25.00
2019-03-23T09:45:10.976Z,24.70
2019-03-23T09:49:16.699Z,24.70
2019-03-23T09:53:22.397Z,26.80
2019-03-23T09:57:28.094Z,26.00
2019-03-23T10:01:33.812Z,25.60
2019-03-23T10:05:39.494Z,26.50
2019-03-23T10:09:45.197Z,26.50
2019-03-23T10:13:50.895Z,27.50
2019-03-23T10:17:56.616Z,26.70
2019-03-23T10:22:02.328Z,26.50
2019-03-23T10:26:08.203Z,26.90
2019-03-23T10:30:14.139Z,26.20
2019-03-23T10:34:19.875Z,25.50
2019-03-23T10:38:25.626Z,25.90
2019-03-23T10:42:31.328Z,23.40
2019-03-23T10:46:37.029Z,22.90
2019-03-23T10:50:42.733Z,23.00
2019-03-23T10:54:48.524Z,21.50
2019-03-23T10:58:55.217Z,21.30
2019-03-23T11:03:00.891Z,20.90
2019-03-23T11:07:06.590Z,20.40
2019-03-23T11:11:12.576Z,21.40
2019-03-23T11:15:18.268Z,20.10
2019-03-23T11:19:24.017Z,19.80
2019-03-23T11:23:29.709Z,18.90
2019-03-23T11:27:35.549Z,20.00
2019-03-23T11:31:41.283Z,19.30
2019-03-23T11:35:57.264Z,19.20
2019-03-23T11:39:54.663Z,18.60
2019-03-23T11:44:00.357Z,17.60
2019-03-23T11:48:06.138Z,18.40
2019-03-23T11:52:11.899Z,18.80
2019-03-23T11:56:17.703Z,18.60
2019-03-23T12:00:24.194Z,19.10
2019-03-23T12:04:29.901Z,19.10
2019-03-23T12:08:35.609Z,19.20
2019-03-23T12:12:41.596Z,19.90
2019-03-23T12:16:47.341Z,19.70
2019-03-23T12:20:53.010Z,19.20
2019-03-23T12:24:58.729Z,19.50
2019-03-23T12:29:04.476Z,20.30
2019-03-23T12:33:10.345Z,21.30
2019-03-23T12:37:16.033Z,22.90
2019-03-23T12:41:23.275Z,22.50
2019-03-23T12:45:29.280Z,22.90
2019-03-23T12:49:35.051Z,22.10
2019-03-23T12:53:40.738Z,23.00
2019-03-23T12:57:46.426Z,22.20
2019-03-23T13:01:52.131Z,21.90
2019-03-23T13:05:57.855Z,21.10
2019-03-23T13:10:04.763Z,21.20
2019-03-23T13:14:10.615Z,22.50
2019-03-23T13:18:26.703Z,22.50
2019-03-23T13:22:23.679Z,22.80
2019-03-23T13:26:29.427Z,23.80
2019-03-23T13:30:35.168Z,24.10
2019-03-23T13:34:40.838Z,23.20
2019-03-23T13:38:46.623Z,21.90
2019-03-23T13:42:52.350Z,21.20
2019-03-23T13:46:58.064Z,20.50
2019-03-23T13:51:03.765Z,20.00
2019-03-23T13:55:13.157Z,19.20
2019-03-23T13:59:18.856Z,19.20
2019-03-23T14:03:24.579Z,20.40
2019-03-23T14:07:30.327Z,19.80
2019-03-23T14:11:36.036Z,19.10
2019-03-23T14:15:41.850Z,19.20
2019-03-23T14:19:47.560Z,19.30
2019-03-23T14:23:55.171Z,19.40
2019-03-23T14:28:00.678Z,20.50
2019-03-23T14:32:06.413Z,20.20
2019-03-23T14:36:12.346Z,20.90
2019-03-23T14:40:18.057Z,20.60
2019-03-23T14:44:23.755Z,19.40
2019-03-23T14:48:29.455Z,21.20
2019-03-23T14:52:36.467Z,20.70
2019-03-23T14:56:42.269Z,21.80
2019-03-23T15:00:48.025Z,21.50
2019-03-23T15:04:53.732Z,28.40
2019-03-23T15:08:59.511Z,29.20
2019-03-23T15:13:05.222Z,32.00
2019-03-23T15:17:11.066Z,32.00
2019-03-23T15:21:16.784Z,31.70
2019-03-23T15:25:22.617Z,31.80
2019-03-23T15:29:28.361Z,35.20
2019-03-23T15:33:34.088Z,35.70
2019-03-23T15:37:39.809Z,36.50
2019-03-23T15:41:46.609Z,35.60
2019-03-23T15:45:52.316Z,34.30
2019-03-23T15:49:58.037Z,33.50
2019-03-23T15:54:03.716Z,32.70
2019-03-23T15:58:09.469Z,33.60
2019-03-23T16:02:15.391Z,31.60
2019-03-23T16:06:21.121Z,34.60
2019-03-23T16:10:26.880Z,33.70
2019-03-23T16:14:32.571Z,34.60
2019-03-23T16:18:38.312Z,35.80
2019-03-23T16:22:44.029Z,31.00
2019-03-23T16:26:49.768Z,36.50
2019-03-23T16:30:55.501Z,38.00
2019-03-23T16:35:01.265Z,36.30
2019-03-23T16:39:07.716Z,35.40
2019-03-23T16:43:19.452Z,37.40
2019-03-23T16:47:25.165Z,37.60
2019-03-23T16:51:30.850Z,38.90
2019-03-23T16:55:36.557Z,37.80
2019-03-23T16:59:42.264Z,38.10
2019-03-23T17:03:47.964Z,38.70
2019-03-23T17:07:53.674Z,36.90
2019-03-23T17:11:59.412Z,39.70
2019-03-23T17:16:05.180Z,38.70
2019-03-23T17:20:11.357Z,36.30
2019-03-23T17:24:17.145Z,35.00
2019-03-23T17:28:22.997Z,35.90
2019-03-23T17:32:28.765Z,37.40
2019-03-23T17:36:34.472Z,38.00
2019-03-23T17:40:40.199Z,37.90
2019-03-23T17:44:46.259Z,37.70
2019-03-23T17:48:52.996Z,38.10
2019-03-23T17:52:58.663Z,36.60
2019-03-23T17:57:04.389Z,34.50
2019-03-23T18:01:19.384Z,34.70
2019-03-23T18:05:21.041Z,34.00
2019-03-23T18:21:14.502Z,33.70
2019-03-23T18:36:43.381Z,33.80
2019-03-23T18:40:52.618Z,33.80
2019-03-23T18:45:19.441Z,36.70
2019-03-23T18:49:25.223Z,39.80
2019-03-23T18:53:30.991Z,34.20
2019-03-23T18:57:36.711Z,33.60
2019-03-23T19:01:42.426Z,34.60
2019-03-23T19:05:48.215Z,34.40
2019-03-23T19:09:53.920Z,35.30
2019-03-23T19:13:59.631Z,37.10
2019-03-23T19:18:06.883Z,36.50
2019-03-23T19:22:18.762Z,36.50
2019-03-23T19:26:24.491Z,36.00
2019-03-23T19:30:30.275Z,37.40
2019-03-23T19:34:35.992Z,36.50
2019-03-23T19:38:41.682Z,37.00
2019-03-23T19:42:47.399Z,37.60
2019-03-23T19:46:53.108Z,37.00
2019-03-23T19:50:58.807Z,37.80
2019-03-23T19:55:07.275Z,37.80
2019-03-23T19:59:12.978Z,38.80
2019-03-23T20:03:19.294Z,38.20
2019-03-23T20:07:32.710Z,38.80
2019-03-23T20:11:32.622Z,39.00
2019-03-23T20:15:38.407Z,39.20
2019-03-23T20:19:44.173Z,39.30
2019-03-23T20:23:51.301Z,38.90
2019-03-23T20:27:57.113Z,39.10
2019-03-23T20:32:17.637Z,39.80
2019-03-23T20:36:23.398Z,40.10
2019-03-23T20:40:29.180Z,39.20
2019-03-23T20:44:35.046Z,39.50
2019-03-23T20:48:41.077Z,39.90
2019-03-23T20:52:47.397Z,40.20
2019-03-23T20:56:53.105Z,40.40
2019-03-23T21:00:58.802Z,41.20
2019-03-23T21:05:05.537Z,42.00
2019-03-23T21:09:11.696Z,43.50
2019-03-23T21:13:17.409Z,43.70
2019-03-23T21:17:23.119Z,43.70
2019-03-23T21:21:28.798Z,44.60
2019-03-23T21:25:34.527Z,44.70
2019-03-23T21:29:41.237Z,44.40
2019-03-23T21:33:47.031Z,44.30
2019-03-23T21:37:52.786Z,44.30
2019-03-23T21:41:58.504Z,45.10
2019-03-23T21:46:04.338Z,45.90
2019-03-23T21:50:11.232Z,47.00
2019-03-23T21:54:17.371Z,47.90
2019-03-23T21:58:24.183Z,48.10
2019-03-23T22:02:29.886Z,48.10
2019-03-23T22:06:35.574Z,48.90
2019-03-23T22:10:41.282Z,48.40
2019-03-23T22:14:46.976Z,48.10
2019-03-23T22:18:52.690Z,48.70
2019-03-23T22:22:58.375Z,50.10
2019-03-23T22:28:16.090Z,50.70
2019-03-23T22:37:17.545Z,54.80
2019-03-23T22:47:18.932Z,58.60
2019-03-23T22:52:18.567Z,58.20
2019-03-23T22:57:48.019Z,59.20
2019-03-23T23:01:53.791Z,60.60
2019-03-23T23:05:59.542Z,61.30
2019-03-23T23:10:07.151Z,61.80
2019-03-23T23:14:13.146Z,62.20
2019-03-23T23:18:18.921Z,61.70
2019-03-23T23:22:24.614Z,60.60
2019-03-23T23:26:30.322Z,62.90
2019-03-23T23:30:36.213Z,63.30
2019-03-23T23:34:41.889Z,63.80
2019-03-23T23:38:47.587Z,64.10
2019-03-23T23:42:53.274Z,65.40
2019-03-23T23:46:59.003Z,66.00
2019-03-23T23:51:04.723Z,66.90
2019-03-23T23:55:12.519Z,67.80
2019-03-23T23:59:18.216Z,67.40
